sensor_id;sensor_type;location;lat;lon;timestamp;P1;durP1;ratioP1;P2;durP2;ratioP2
49722;SDS011;43484;43.608;1.458;2024-01-16T00:02:17;23.55;;;18.05;;
49722;SDS011;43484;43.608;1.458;2024-01-16T00:04:43;23.17;;;16.63;;
49722;SDS011;43484;43.608;1.458;2024-01-16T00:07:10;19.30;;;14.25;;
49722;SDS011;43484;43.608;1.458;2024-01-16T00:09:37;17.88;;;13.45;;
49722;SDS011;43484;43.608;1.458;2024-01-16T00:12:04;17.02;;;13.48;;
49722;SDS011;43484;43.608;1.458;2024-01-16T00:14:34;15.32;;;12.50;;
49722;SDS011;43484;43.608;1.458;2024-01-16T00:17:02;19.70;;;11.98;;
49722;SDS011;43484;43.608;1.458;2024-01-16T00:19:28;11.30;;;9.13;;
49722;SDS011;43484;43.608;1.458;2024-01-16T00:21:55;14.73;;;11.43;;
49722;SDS011;43484;43.608;1.458;2024-01-16T00:24:22;10.95;;;8.57;;
49722;SDS011;43484;43.608;1.458;2024-01-16T00:26:48;13.23;;;8.50;;
49722;SDS011;43484;43.608;1.458;2024-01-16T00:29:16;11.00;;;8.10;;
49722;SDS011;43484;43.608;1.458;2024-01-16T00:31:43;11.05;;;9.07;;
49722;SDS011;43484;43.608;1.458;2024-01-16T00:34:10;11.20;;;7.88;;
49722;SDS011;43484;43.608;1.458;2024-01-16T00:36:36;8.50;;;7.60;;
49722;SDS011;43484;43.608;1.458;2024-01-16T00:39:03;8.80;;;7.22;;
49722;SDS011;43484;43.608;1.458;2024-01-16T00:41:29;10.43;;;7.68;;
49722;SDS011;43484;43.608;1.458;2024-01-16T00:43:56;8.95;;;6.53;;
49722;SDS011;43484;43.608;1.458;2024-01-16T00:46:23;7.07;;;6.25;;
49722;SDS011;43484;43.608;1.458;2024-01-16T00:48:49;9.65;;;4.80;;
49722;SDS011;43484;43.608;1.458;2024-01-16T00:51:16;4.60;;;4.20;;
49722;SDS011;43484;43.608;1.458;2024-01-16T00:53:43;4.72;;;4.03;;
49722;SDS011;43484;43.608;1.458;2024-01-16T00:56:10;3.92;;;3.30;;
49722;SDS011;43484;43.608;1.458;2024-01-16T00:58:39;5.20;;;2.63;;
49722;SDS011;43484;43.608;1.458;2024-01-16T01:01:05;2.88;;;1.35;;
49722;SDS011;43484;43.608;1.458;2024-01-16T01:03:32;2.13;;;1.48;;
49722;SDS011;43484;43.608;1.458;2024-01-16T01:05:59;1.52;;;1.10;;
49722;SDS011;43484;43.608;1.458;2024-01-16T01:08:27;3.85;;;1.65;;
49722;SDS011;43484;43.608;1.458;2024-01-16T01:10:54;1.52;;;1.08;;
49722;SDS011;43484;43.608;1.458;2024-01-16T01:13:21;1.67;;;1.13;;
49722;SDS011;43484;43.608;1.458;2024-01-16T01:15:48;3.88;;;1.50;;
49722;SDS011;43484;43.608;1.458;2024-01-16T01:18:15;3.10;;;1.20;;
49722;SDS011;43484;43.608;1.458;2024-01-16T01:20:41;0.70;;;0.70;;
49722;SDS011;43484;43.608;1.458;2024-01-16T01:23:09;2.60;;;1.00;;
49722;SDS011;43484;43.608;1.458;2024-01-16T01:25:36;0.77;;;0.68;;
49722;SDS011;43484;43.608;1.458;2024-01-16T01:28:03;4.53;;;0.90;;
49722;SDS011;43484;43.608;1.458;2024-01-16T01:30:29;2.38;;;1.40;;
49722;SDS011;43484;43.608;1.458;2024-01-16T01:32:56;0.60;;;0.45;;
49722;SDS011;43484;43.608;1.458;2024-01-16T01:35:23;1.25;;;0.70;;
49722;SDS011;43484;43.608;1.458;2024-01-16T01:37:49;2.72;;;0.50;;
49722;SDS011;43484;43.608;1.458;2024-01-16T01:40:16;2.38;;;0.80;;
49722;SDS011;43484;43.608;1.458;2024-01-16T01:42:43;2.75;;;1.10;;
49722;SDS011;43484;43.608;1.458;2024-01-16T01:45:10;4.93;;;1.40;;
49722;SDS011;43484;43.608;1.458;2024-01-16T01:47:38;2.35;;;1.33;;
49722;SDS011;43484;43.608;1.458;2024-01-16T01:50:11;3.50;;;1.33;;
49722;SDS011;43484;43.608;1.458;2024-01-16T01:52:40;2.05;;;1.30;;
49722;SDS011;43484;43.608;1.458;2024-01-16T01:55:08;8.00;;;1.20;;
49722;SDS011;43484;43.608;1.458;2024-01-16T01:57:38;1.70;;;1.20;;
49722;SDS011;43484;43.608;1.458;2024-01-16T02:00:06;1.50;;;1.30;;
49722;SDS011;43484;43.608;1.458;2024-01-16T02:02:33;6.60;;;1.90;;
49722;SDS011;43484;43.608;1.458;2024-01-16T02:05:00;2.50;;;1.73;;
49722;SDS011;43484;43.608;1.458;2024-01-16T02:07:28;2.35;;;1.27;;
49722;SDS011;43484;43.608;1.458;2024-01-16T02:09:57;3.55;;;1.90;;
49722;SDS011;43484;43.608;1.458;2024-01-16T02:12:24;5.47;;;1.60;;
49722;SDS011;43484;43.608;1.458;2024-01-16T02:14:51;2.67;;;1.27;;
49722;SDS011;43484;43.608;1.458;2024-01-16T02:17:17;2.08;;;1.35;;
49722;SDS011;43484;43.608;1.458;2024-01-16T02:19:44;2.20;;;1.25;;
49722;SDS011;43484;43.608;1.458;2024-01-16T02:22:12;3.17;;;1.33;;
49722;SDS011;43484;43.608;1.458;2024-01-16T02:24:43;1.85;;;0.90;;
49722;SDS011;43484;43.608;1.458;2024-01-16T02:27:09;3.85;;;1.17;;
49722;SDS011;43484;43.608;1.458;2024-01-16T02:29:40;4.47;;;1.38;;
49722;SDS011;43484;43.608;1.458;2024-01-16T02:32:09;2.28;;;1.00;;
49722;SDS011;43484;43.608;1.458;2024-01-16T02:34:39;1.33;;;0.88;;
49722;SDS011;43484;43.608;1.458;2024-01-16T02:37:06;3.50;;;0.82;;
49722;SDS011;43484;43.608;1.458;2024-01-16T02:39:32;2.88;;;0.88;;
49722;SDS011;43484;43.608;1.458;2024-01-16T02:41:59;1.48;;;0.60;;
49722;SDS011;43484;43.608;1.458;2024-01-16T02:44:26;5.10;;;0.95;;
49722;SDS011;43484;43.608;1.458;2024-01-16T02:46:52;1.50;;;0.70;;
49722;SDS011;43484;43.608;1.458;2024-01-16T02:49:19;1.88;;;0.80;;
49722;SDS011;43484;43.608;1.458;2024-01-16T02:51:46;3.60;;;1.05;;
49722;SDS011;43484;43.608;1.458;2024-01-16T02:54:13;0.93;;;0.55;;
49722;SDS011;43484;43.608;1.458;2024-01-16T02:56:40;1.08;;;0.85;;
49722;SDS011;43484;43.608;1.458;2024-01-16T02:59:07;1.73;;;0.88;;
49722;SDS011;43484;43.608;1.458;2024-01-16T03:01:34;6.32;;;0.85;;
49722;SDS011;43484;43.608;1.458;2024-01-16T03:04:00;1.88;;;0.82;;
49722;SDS011;43484;43.608;1.458;2024-01-16T03:06:27;3.13;;;0.90;;
49722;SDS011;43484;43.608;1.458;2024-01-16T03:08:55;3.00;;;1.10;;
49722;SDS011;43484;43.608;1.458;2024-01-16T03:11:22;10.38;;;1.80;;
49722;SDS011;43484;43.608;1.458;2024-01-16T03:13:49;2.08;;;1.17;;
49722;SDS011;43484;43.608;1.458;2024-01-16T03:16:18;1.60;;;1.17;;
49722;SDS011;43484;43.608;1.458;2024-01-16T03:18:45;1.75;;;0.95;;
49722;SDS011;43484;43.608;1.458;2024-01-16T03:21:13;3.22;;;1.08;;
49722;SDS011;43484;43.608;1.458;2024-01-16T03:23:39;1.55;;;1.00;;
49722;SDS011;43484;43.608;1.458;2024-01-16T03:26:06;1.35;;;1.20;;
49722;SDS011;43484;43.608;1.458;2024-01-16T03:28:33;4.50;;;1.52;;
49722;SDS011;43484;43.608;1.458;2024-01-16T03:31:00;3.55;;;1.45;;
49722;SDS011;43484;43.608;1.458;2024-01-16T03:33:27;3.03;;;1.30;;
49722;SDS011;43484;43.608;1.458;2024-01-16T03:35:53;2.88;;;1.33;;
49722;SDS011;43484;43.608;1.458;2024-01-16T03:38:20;4.72;;;1.60;;
49722;SDS011;43484;43.608;1.458;2024-01-16T03:40:47;2.95;;;1.98;;
49722;SDS011;43484;43.608;1.458;2024-01-16T03:43:14;3.88;;;2.00;;
49722;SDS011;43484;43.608;1.458;2024-01-16T03:45:40;5.03;;;2.00;;
49722;SDS011;43484;43.608;1.458;2024-01-16T03:48:07;5.18;;;2.10;;
49722;SDS011;43484;43.608;1.458;2024-01-16T03:50:34;3.85;;;1.92;;
49722;SDS011;43484;43.608;1.458;2024-01-16T03:53:02;1.95;;;1.83;;
49722;SDS011;43484;43.608;1.458;2024-01-16T03:55:32;4.22;;;2.53;;
49722;SDS011;43484;43.608;1.458;2024-01-16T03:57:59;3.20;;;2.60;;
49722;SDS011;43484;43.608;1.458;2024-01-16T04:00:25;2.92;;;2.22;;
49722;SDS011;43484;43.608;1.458;2024-01-16T04:02:52;4.70;;;2.80;;
49722;SDS011;43484;43.608;1.458;2024-01-16T04:05:19;7.38;;;2.83;;
49722;SDS011;43484;43.608;1.458;2024-01-16T04:07:46;5.47;;;3.38;;
49722;SDS011;43484;43.608;1.458;2024-01-16T04:10:12;3.05;;;2.63;;
49722;SDS011;43484;43.608;1.458;2024-01-16T04:12:39;5.80;;;3.22;;
49722;SDS011;43484;43.608;1.458;2024-01-16T04:15:06;6.50;;;2.70;;
49722;SDS011;43484;43.608;1.458;2024-01-16T04:17:33;4.25;;;3.22;;
49722;SDS011;43484;43.608;1.458;2024-01-16T04:19:59;6.03;;;3.08;;
49722;SDS011;43484;43.608;1.458;2024-01-16T04:22:26;3.38;;;3.13;;
49722;SDS011;43484;43.608;1.458;2024-01-16T04:24:53;5.57;;;3.33;;
49722;SDS011;43484;43.608;1.458;2024-01-16T04:27:20;9.70;;;3.80;;
49722;SDS011;43484;43.608;1.458;2024-01-16T04:29:47;5.07;;;3.30;;
49722;SDS011;43484;43.608;1.458;2024-01-16T04:32:14;4.68;;;3.72;;
49722;SDS011;43484;43.608;1.458;2024-01-16T04:34:41;7.60;;;4.75;;
49722;SDS011;43484;43.608;1.458;2024-01-16T04:37:07;5.65;;;3.92;;
49722;SDS011;43484;43.608;1.458;2024-01-16T04:39:34;9.00;;;4.30;;
49722;SDS011;43484;43.608;1.458;2024-01-16T04:42:01;8.25;;;4.43;;
49722;SDS011;43484;43.608;1.458;2024-01-16T04:44:27;6.90;;;4.07;;
49722;SDS011;43484;43.608;1.458;2024-01-16T04:46:54;9.02;;;4.22;;
49722;SDS011;43484;43.608;1.458;2024-01-16T04:49:21;4.60;;;4.18;;
49722;SDS011;43484;43.608;1.458;2024-01-16T04:51:47;6.07;;;4.35;;
49722;SDS011;43484;43.608;1.458;2024-01-16T04:54:14;9.40;;;4.70;;
49722;SDS011;43484;43.608;1.458;2024-01-16T04:56:40;6.28;;;4.45;;
49722;SDS011;43484;43.608;1.458;2024-01-16T04:59:07;8.63;;;4.22;;
49722;SDS011;43484;43.608;1.458;2024-01-16T05:01:33;6.07;;;4.60;;
49722;SDS011;43484;43.608;1.458;2024-01-16T05:04:00;5.50;;;4.60;;
49722;SDS011;43484;43.608;1.458;2024-01-16T05:06:27;4.97;;;4.28;;
49722;SDS011;43484;43.608;1.458;2024-01-16T05:08:54;6.45;;;4.05;;
49722;SDS011;43484;43.608;1.458;2024-01-16T05:11:20;8.02;;;5.40;;
49722;SDS011;43484;43.608;1.458;2024-01-16T05:13:47;7.25;;;5.68;;
49722;SDS011;43484;43.608;1.458;2024-01-16T05:16:13;6.20;;;5.30;;
49722;SDS011;43484;43.608;1.458;2024-01-16T05:18:43;6.60;;;4.55;;
49722;SDS011;43484;43.608;1.458;2024-01-16T05:21:10;5.28;;;4.85;;
49722;SDS011;43484;43.608;1.458;2024-01-16T05:23:37;6.25;;;4.65;;
49722;SDS011;43484;43.608;1.458;2024-01-16T05:26:04;5.07;;;4.00;;
49722;SDS011;43484;43.608;1.458;2024-01-16T05:28:30;5.18;;;3.90;;
49722;SDS011;43484;43.608;1.458;2024-01-16T05:30:57;6.72;;;4.00;;
49722;SDS011;43484;43.608;1.458;2024-01-16T05:33:25;4.05;;;3.40;;
49722;SDS011;43484;43.608;1.458;2024-01-16T05:35:52;4.72;;;4.13;;
49722;SDS011;43484;43.608;1.458;2024-01-16T05:38:19;4.25;;;2.92;;
49722;SDS011;43484;43.608;1.458;2024-01-16T05:40:46;6.82;;;2.80;;
49722;SDS011;43484;43.608;1.458;2024-01-16T05:43:12;5.07;;;1.90;;
49722;SDS011;43484;43.608;1.458;2024-01-16T05:45:39;2.28;;;2.08;;
49722;SDS011;43484;43.608;1.458;2024-01-16T05:48:05;2.42;;;2.00;;
49722;SDS011;43484;43.608;1.458;2024-01-16T05:50:34;3.38;;;2.20;;
49722;SDS011;43484;43.608;1.458;2024-01-16T05:53:01;2.95;;;1.85;;
49722;SDS011;43484;43.608;1.458;2024-01-16T05:55:28;3.72;;;1.58;;
49722;SDS011;43484;43.608;1.458;2024-01-16T05:57:58;3.05;;;1.33;;
49722;SDS011;43484;43.608;1.458;2024-01-16T06:00:27;3.92;;;1.95;;
49722;SDS011;43484;43.608;1.458;2024-01-16T06:02:55;2.85;;;1.30;;
49722;SDS011;43484;43.608;1.458;2024-01-16T06:05:21;4.82;;;1.25;;
49722;SDS011;43484;43.608;1.458;2024-01-16T06:07:48;3.38;;;1.30;;
49722;SDS011;43484;43.608;1.458;2024-01-16T06:10:14;2.33;;;1.10;;
49722;SDS011;43484;43.608;1.458;2024-01-16T06:12:41;2.47;;;1.42;;
49722;SDS011;43484;43.608;1.458;2024-01-16T06:15:08;1.92;;;0.90;;
49722;SDS011;43484;43.608;1.458;2024-01-16T06:17:37;2.85;;;1.20;;
49722;SDS011;43484;43.608;1.458;2024-01-16T06:20:04;1.95;;;1.15;;
49722;SDS011;43484;43.608;1.458;2024-01-16T06:22:33;3.78;;;1.02;;
49722;SDS011;43484;43.608;1.458;2024-01-16T06:24:59;3.20;;;0.90;;
49722;SDS011;43484;43.608;1.458;2024-01-16T06:27:27;2.95;;;1.00;;
49722;SDS011;43484;43.608;1.458;2024-01-16T06:29:54;4.15;;;1.00;;
49722;SDS011;43484;43.608;1.458;2024-01-16T06:32:21;2.65;;;1.00;;
49722;SDS011;43484;43.608;1.458;2024-01-16T06:34:48;1.15;;;0.80;;
49722;SDS011;43484;43.608;1.458;2024-01-16T06:37:15;1.67;;;0.82;;
49722;SDS011;43484;43.608;1.458;2024-01-16T06:39:41;5.28;;;1.08;;
49722;SDS011;43484;43.608;1.458;2024-01-16T06:42:08;0.75;;;0.75;;
49722;SDS011;43484;43.608;1.458;2024-01-16T06:44:36;2.30;;;0.77;;
49722;SDS011;43484;43.608;1.458;2024-01-16T06:47:03;1.10;;;0.60;;
49722;SDS011;43484;43.608;1.458;2024-01-16T06:49:31;2.88;;;0.70;;
49722;SDS011;43484;43.608;1.458;2024-01-16T06:51:58;5.60;;;1.17;;
49722;SDS011;43484;43.608;1.458;2024-01-16T06:54:25;3.97;;;0.93;;
49722;SDS011;43484;43.608;1.458;2024-01-16T06:56:52;3.75;;;1.05;;
49722;SDS011;43484;43.608;1.458;2024-01-16T06:59:19;1.92;;;1.13;;
49722;SDS011;43484;43.608;1.458;2024-01-16T07:01:47;1.30;;;0.60;;
49722;SDS011;43484;43.608;1.458;2024-01-16T07:04:15;8.80;;;1.15;;
49722;SDS011;43484;43.608;1.458;2024-01-16T07:06:42;3.05;;;0.98;;
49722;SDS011;43484;43.608;1.458;2024-01-16T07:09:09;4.55;;;1.00;;
49722;SDS011;43484;43.608;1.458;2024-01-16T07:11:39;1.80;;;0.80;;
49722;SDS011;43484;43.608;1.458;2024-01-16T07:14:09;3.20;;;0.98;;
49722;SDS011;43484;43.608;1.458;2024-01-16T07:16:37;2.03;;;0.90;;
49722;SDS011;43484;43.608;1.458;2024-01-16T07:19:04;2.22;;;0.95;;
49722;SDS011;43484;43.608;1.458;2024-01-16T07:21:31;3.08;;;0.90;;
49722;SDS011;43484;43.608;1.458;2024-01-16T07:23:57;5.65;;;1.05;;
49722;SDS011;43484;43.608;1.458;2024-01-16T07:26:24;5.10;;;1.40;;
49722;SDS011;43484;43.608;1.458;2024-01-16T07:28:51;14.55;;;1.67;;
49722;SDS011;43484;43.608;1.458;2024-01-16T07:31:18;4.93;;;1.40;;
49722;SDS011;43484;43.608;1.458;2024-01-16T07:33:44;2.95;;;1.17;;
49722;SDS011;43484;43.608;1.458;2024-01-16T07:36:11;6.85;;;1.35;;
49722;SDS011;43484;43.608;1.458;2024-01-16T07:38:38;9.50;;;1.25;;
49722;SDS011;43484;43.608;1.458;2024-01-16T07:41:05;5.30;;;1.83;;
49722;SDS011;43484;43.608;1.458;2024-01-16T07:43:32;5.20;;;1.95;;
49722;SDS011;43484;43.608;1.458;2024-01-16T07:45:59;7.57;;;1.38;;
49722;SDS011;43484;43.608;1.458;2024-01-16T07:48:26;10.82;;;1.90;;
49722;SDS011;43484;43.608;1.458;2024-01-16T07:50:52;14.52;;;2.00;;
49722;SDS011;43484;43.608;1.458;2024-01-16T07:53:19;2.85;;;1.40;;
49722;SDS011;43484;43.608;1.458;2024-01-16T07:55:46;9.35;;;1.58;;
49722;SDS011;43484;43.608;1.458;2024-01-16T07:58:14;7.60;;;1.63;;
49722;SDS011;43484;43.608;1.458;2024-01-16T08:00:40;4.88;;;1.55;;
49722;SDS011;43484;43.608;1.458;2024-01-16T08:03:08;6.50;;;1.70;;
49722;SDS011;43484;43.608;1.458;2024-01-16T08:05:38;4.72;;;1.40;;
49722;SDS011;43484;43.608;1.458;2024-01-16T08:08:08;4.20;;;1.70;;
49722;SDS011;43484;43.608;1.458;2024-01-16T08:10:40;3.88;;;1.80;;
49722;SDS011;43484;43.608;1.458;2024-01-16T08:13:08;1.60;;;1.30;;
49722;SDS011;43484;43.608;1.458;2024-01-16T08:15:36;2.60;;;1.95;;
49722;SDS011;43484;43.608;1.458;2024-01-16T08:18:03;5.18;;;2.50;;
49722;SDS011;43484;43.608;1.458;2024-01-16T08:20:30;5.57;;;2.28;;
49722;SDS011;43484;43.608;1.458;2024-01-16T08:22:57;8.52;;;2.95;;
49722;SDS011;43484;43.608;1.458;2024-01-16T08:25:24;5.13;;;3.00;;
49722;SDS011;43484;43.608;1.458;2024-01-16T08:27:51;11.35;;;3.10;;
49722;SDS011;43484;43.608;1.458;2024-01-16T08:30:17;19.30;;;8.73;;
49722;SDS011;43484;43.608;1.458;2024-01-16T08:32:44;4.47;;;2.63;;
49722;SDS011;43484;43.608;1.458;2024-01-16T08:35:11;10.02;;;2.65;;
49722;SDS011;43484;43.608;1.458;2024-01-16T08:37:38;7.07;;;2.03;;
49722;SDS011;43484;43.608;1.458;2024-01-16T08:40:05;10.02;;;2.60;;
49722;SDS011;43484;43.608;1.458;2024-01-16T08:42:33;12.88;;;3.00;;
49722;SDS011;43484;43.608;1.458;2024-01-16T08:44:59;4.07;;;2.13;;
49722;SDS011;43484;43.608;1.458;2024-01-16T08:47:26;6.90;;;2.47;;
49722;SDS011;43484;43.608;1.458;2024-01-16T08:49:53;4.30;;;1.73;;
49722;SDS011;43484;43.608;1.458;2024-01-16T08:52:19;6.38;;;2.20;;
49722;SDS011;43484;43.608;1.458;2024-01-16T08:54:46;7.90;;;2.47;;
49722;SDS011;43484;43.608;1.458;2024-01-16T08:57:14;6.05;;;2.40;;
49722;SDS011;43484;43.608;1.458;2024-01-16T08:59:43;11.80;;;2.42;;
49722;SDS011;43484;43.608;1.458;2024-01-16T09:02:11;11.93;;;3.15;;
49722;SDS011;43484;43.608;1.458;2024-01-16T09:04:38;8.00;;;2.50;;
49722;SDS011;43484;43.608;1.458;2024-01-16T09:07:05;8.68;;;3.10;;
49722;SDS011;43484;43.608;1.458;2024-01-16T09:09:32;15.00;;;3.08;;
49722;SDS011;43484;43.608;1.458;2024-01-16T09:11:59;4.60;;;2.63;;
49722;SDS011;43484;43.608;1.458;2024-01-16T09:14:26;5.18;;;2.20;;
49722;SDS011;43484;43.608;1.458;2024-01-16T09:16:52;4.63;;;2.80;;
49722;SDS011;43484;43.608;1.458;2024-01-16T09:19:20;5.63;;;2.20;;
49722;SDS011;43484;43.608;1.458;2024-01-16T09:21:47;4.88;;;2.17;;
49722;SDS011;43484;43.608;1.458;2024-01-16T09:24:14;7.60;;;1.67;;
49722;SDS011;43484;43.608;1.458;2024-01-16T09:26:41;4.63;;;1.67;;
49722;SDS011;43484;43.608;1.458;2024-01-16T09:29:09;10.63;;;2.08;;
49722;SDS011;43484;43.608;1.458;2024-01-16T09:31:36;12.90;;;2.00;;
49722;SDS011;43484;43.608;1.458;2024-01-16T09:34:03;10.10;;;1.83;;
49722;SDS011;43484;43.608;1.458;2024-01-16T09:36:35;6.72;;;1.38;;
49722;SDS011;43484;43.608;1.458;2024-01-16T09:39:06;10.32;;;1.80;;
49722;SDS011;43484;43.608;1.458;2024-01-16T09:41:51;5.30;;;1.13;;
49722;SDS011;43484;43.608;1.458;2024-01-16T09:44:18;7.55;;;1.08;;
49722;SDS011;43484;43.608;1.458;2024-01-16T09:46:45;9.02;;;1.60;;
49722;SDS011;43484;43.608;1.458;2024-01-16T09:49:16;8.68;;;1.55;;
49722;SDS011;43484;43.608;1.458;2024-01-16T09:51:44;3.58;;;1.20;;
49722;SDS011;43484;43.608;1.458;2024-01-16T09:54:11;6.65;;;1.65;;
49722;SDS011;43484;43.608;1.458;2024-01-16T09:56:41;3.05;;;1.30;;
49722;SDS011;43484;43.608;1.458;2024-01-16T09:59:09;6.03;;;1.10;;
49722;SDS011;43484;43.608;1.458;2024-01-16T10:01:41;5.28;;;1.13;;
49722;SDS011;43484;43.608;1.458;2024-01-16T10:04:08;15.05;;;1.13;;
49722;SDS011;43484;43.608;1.458;2024-01-16T10:06:34;6.93;;;1.10;;
49722;SDS011;43484;43.608;1.458;2024-01-16T10:09:04;9.18;;;1.38;;
49722;SDS011;43484;43.608;1.458;2024-01-16T10:11:30;4.53;;;1.20;;
49722;SDS011;43484;43.608;1.458;2024-01-16T10:14:00;10.35;;;1.52;;
49722;SDS011;43484;43.608;1.458;2024-01-16T10:19:27;11.20;;;1.20;;
49722;SDS011;43484;43.608;1.458;2024-01-16T10:22:11;9.93;;;1.83;;
49722;SDS011;43484;43.608;1.458;2024-01-16T10:24:38;10.15;;;1.42;;
49722;SDS011;43484;43.608;1.458;2024-01-16T10:27:07;6.80;;;1.25;;
49722;SDS011;43484;43.608;1.458;2024-01-16T10:29:34;6.28;;;1.60;;
49722;SDS011;43484;43.608;1.458;2024-01-16T10:32:20;11.82;;;1.50;;
49722;SDS011;43484;43.608;1.458;2024-01-16T10:37:40;5.20;;;2.10;;
49722;SDS011;43484;43.608;1.458;2024-01-16T10:40:08;9.18;;;1.80;;
49722;SDS011;43484;43.608;1.458;2024-01-16T10:42:35;9.82;;;1.80;;
49722;SDS011;43484;43.608;1.458;2024-01-16T10:45:03;10.65;;;1.90;;
49722;SDS011;43484;43.608;1.458;2024-01-16T10:47:30;5.45;;;1.45;;
49722;SDS011;43484;43.608;1.458;2024-01-16T10:50:00;9.15;;;1.67;;
49722;SDS011;43484;43.608;1.458;2024-01-16T10:52:27;10.57;;;1.83;;
49722;SDS011;43484;43.608;1.458;2024-01-16T10:54:55;6.32;;;1.92;;
49722;SDS011;43484;43.608;1.458;2024-01-16T10:57:27;5.35;;;1.15;;
49722;SDS011;43484;43.608;1.458;2024-01-16T11:00:02;9.02;;;1.42;;
49722;SDS011;43484;43.608;1.458;2024-01-16T11:02:43;10.80;;;1.20;;
49722;SDS011;43484;43.608;1.458;2024-01-16T11:05:16;7.70;;;1.10;;
49722;SDS011;43484;43.608;1.458;2024-01-16T11:07:43;5.47;;;1.10;;
49722;SDS011;43484;43.608;1.458;2024-01-16T11:10:11;2.80;;;0.98;;
49722;SDS011;43484;43.608;1.458;2024-01-16T11:12:39;9.38;;;2.10;;
49722;SDS011;43484;43.608;1.458;2024-01-16T11:15:08;8.60;;;1.67;;
49722;SDS011;43484;43.608;1.458;2024-01-16T11:17:38;12.65;;;2.50;;
49722;SDS011;43484;43.608;1.458;2024-01-16T11:20:08;12.88;;;2.08;;
49722;SDS011;43484;43.608;1.458;2024-01-16T11:23:00;11.70;;;2.38;;
49722;SDS011;43484;43.608;1.458;2024-01-16T11:25:31;6.95;;;2.22;;
49722;SDS011;43484;43.608;1.458;2024-01-16T11:30:38;8.95;;;1.85;;
49722;SDS011;43484;43.608;1.458;2024-01-16T11:33:12;6.68;;;1.25;;
49722;SDS011;43484;43.608;1.458;2024-01-16T11:36:00;6.40;;;1.67;;
49722;SDS011;43484;43.608;1.458;2024-01-16T11:38:27;7.78;;;1.30;;
49722;SDS011;43484;43.608;1.458;2024-01-16T11:40:56;9.77;;;2.03;;
49722;SDS011;43484;43.608;1.458;2024-01-16T11:45:58;5.50;;;0.82;;
49722;SDS011;43484;43.608;1.458;2024-01-16T11:48:28;5.07;;;1.58;;
49722;SDS011;43484;43.608;1.458;2024-01-16T11:50:56;9.68;;;1.30;;
49722;SDS011;43484;43.608;1.458;2024-01-16T11:53:35;8.05;;;1.60;;
49722;SDS011;43484;43.608;1.458;2024-01-16T11:59:18;5.93;;;1.10;;
49722;SDS011;43484;43.608;1.458;2024-01-16T12:02:12;5.75;;;0.93;;
49722;SDS011;43484;43.608;1.458;2024-01-16T12:04:51;10.23;;;1.25;;
49722;SDS011;43484;43.608;1.458;2024-01-16T12:07:20;5.57;;;1.10;;
49722;SDS011;43484;43.608;1.458;2024-01-16T12:09:47;5.60;;;1.10;;
49722;SDS011;43484;43.608;1.458;2024-01-16T12:12:14;6.22;;;1.15;;
49722;SDS011;43484;43.608;1.458;2024-01-16T12:14:45;2.60;;;0.80;;
49722;SDS011;43484;43.608;1.458;2024-01-16T12:17:19;5.63;;;1.20;;
49722;SDS011;43484;43.608;1.458;2024-01-16T12:19:46;7.75;;;1.35;;
49722;SDS011;43484;43.608;1.458;2024-01-16T12:22:13;6.80;;;1.40;;
49722;SDS011;43484;43.608;1.458;2024-01-16T12:24:40;6.97;;;2.28;;
49722;SDS011;43484;43.608;1.458;2024-01-16T12:27:07;3.83;;;1.20;;
49722;SDS011;43484;43.608;1.458;2024-01-16T12:29:35;3.45;;;1.30;;
49722;SDS011;43484;43.608;1.458;2024-01-16T12:32:11;4.03;;;1.20;;
49722;SDS011;43484;43.608;1.458;2024-01-16T12:34:45;8.88;;;1.58;;
49722;SDS011;43484;43.608;1.458;2024-01-16T12:37:13;20.05;;;2.58;;
49722;SDS011;43484;43.608;1.458;2024-01-16T12:39:40;11.25;;;2.53;;
49722;SDS011;43484;43.608;1.458;2024-01-16T12:42:10;10.10;;;2.70;;
49722;SDS011;43484;43.608;1.458;2024-01-16T12:44:38;9.10;;;1.35;;
49722;SDS011;43484;43.608;1.458;2024-01-16T12:47:05;11.45;;;1.80;;
49722;SDS011;43484;43.608;1.458;2024-01-16T12:49:32;6.90;;;1.63;;
49722;SDS011;43484;43.608;1.458;2024-01-16T12:54:49;8.88;;;1.50;;
49722;SDS011;43484;43.608;1.458;2024-01-16T12:57:25;19.35;;;2.13;;
49722;SDS011;43484;43.608;1.458;2024-01-16T12:59:52;13.02;;;1.45;;
49722;SDS011;43484;43.608;1.458;2024-01-16T13:02:23;10.55;;;1.60;;
49722;SDS011;43484;43.608;1.458;2024-01-16T13:04:57;3.33;;;0.98;;
49722;SDS011;43484;43.608;1.458;2024-01-16T13:07:26;6.80;;;1.25;;
49722;SDS011;43484;43.608;1.458;2024-01-16T13:10:06;9.45;;;0.90;;
49722;SDS011;43484;43.608;1.458;2024-01-16T13:12:38;13.35;;;1.40;;
49722;SDS011;43484;43.608;1.458;2024-01-16T13:15:04;9.52;;;1.17;;
49722;SDS011;43484;43.608;1.458;2024-01-16T13:17:34;7.70;;;1.15;;
49722;SDS011;43484;43.608;1.458;2024-01-16T13:20:02;11.85;;;1.42;;
49722;SDS011;43484;43.608;1.458;2024-01-16T13:22:36;11.40;;;1.35;;
49722;SDS011;43484;43.608;1.458;2024-01-16T13:25:12;9.60;;;0.98;;
49722;SDS011;43484;43.608;1.458;2024-01-16T13:27:39;9.98;;;1.23;;
49722;SDS011;43484;43.608;1.458;2024-01-16T13:30:06;10.90;;;1.23;;
49722;SDS011;43484;43.608;1.458;2024-01-16T13:32:33;13.98;;;2.67;;
49722;SDS011;43484;43.608;1.458;2024-01-16T13:35:04;37.95;;;1.92;;
49722;SDS011;43484;43.608;1.458;2024-01-16T13:37:34;11.70;;;2.13;;
49722;SDS011;43484;43.608;1.458;2024-01-16T13:40:05;9.35;;;1.02;;
49722;SDS011;43484;43.608;1.458;2024-01-16T13:42:42;6.85;;;1.73;;
49722;SDS011;43484;43.608;1.458;2024-01-16T13:45:08;5.63;;;1.15;;
49722;SDS011;43484;43.608;1.458;2024-01-16T13:47:35;10.70;;;1.00;;
49722;SDS011;43484;43.608;1.458;2024-01-16T13:50:07;10.43;;;1.55;;
49722;SDS011;43484;43.608;1.458;2024-01-16T13:52:34;11.77;;;1.48;;
49722;SDS011;43484;43.608;1.458;2024-01-16T13:55:02;44.88;;;4.68;;
49722;SDS011;43484;43.608;1.458;2024-01-16T13:57:33;14.95;;;1.50;;
49722;SDS011;43484;43.608;1.458;2024-01-16T14:00:12;8.27;;;1.02;;
49722;SDS011;43484;43.608;1.458;2024-01-16T14:02:41;4.90;;;0.95;;
49722;SDS011;43484;43.608;1.458;2024-01-16T14:05:10;9.85;;;1.38;;
49722;SDS011;43484;43.608;1.458;2024-01-16T14:07:37;23.30;;;2.28;;
49722;SDS011;43484;43.608;1.458;2024-01-16T14:10:05;10.52;;;1.05;;
49722;SDS011;43484;43.608;1.458;2024-01-16T14:12:35;9.48;;;1.40;;
49722;SDS011;43484;43.608;1.458;2024-01-16T14:15:03;4.07;;;1.05;;
49722;SDS011;43484;43.608;1.458;2024-01-16T14:17:35;17.98;;;1.88;;
49722;SDS011;43484;43.608;1.458;2024-01-16T14:20:02;12.35;;;1.58;;
49722;SDS011;43484;43.608;1.458;2024-01-16T14:22:31;7.82;;;1.05;;
49722;SDS011;43484;43.608;1.458;2024-01-16T14:24:58;8.80;;;2.67;;
49722;SDS011;43484;43.608;1.458;2024-01-16T14:27:24;9.95;;;1.23;;
49722;SDS011;43484;43.608;1.458;2024-01-16T14:29:51;27.23;;;2.83;;
49722;SDS011;43484;43.608;1.458;2024-01-16T14:32:18;12.52;;;1.70;;
49722;SDS011;43484;43.608;1.458;2024-01-16T14:34:45;4.90;;;1.20;;
49722;SDS011;43484;43.608;1.458;2024-01-16T14:37:11;4.97;;;1.17;;
49722;SDS011;43484;43.608;1.458;2024-01-16T14:39:39;18.30;;;2.28;;
49722;SDS011;43484;43.608;1.458;2024-01-16T14:42:06;12.52;;;1.92;;
49722;SDS011;43484;43.608;1.458;2024-01-16T14:44:34;6.40;;;1.02;;
49722;SDS011;43484;43.608;1.458;2024-01-16T14:47:01;6.10;;;1.30;;
49722;SDS011;43484;43.608;1.458;2024-01-16T14:49:28;3.95;;;0.98;;
49722;SDS011;43484;43.608;1.458;2024-01-16T14:51:58;17.88;;;1.33;;
49722;SDS011;43484;43.608;1.458;2024-01-16T14:54:25;4.63;;;1.50;;
49722;SDS011;43484;43.608;1.458;2024-01-16T14:56:52;16.48;;;1.98;;
49722;SDS011;43484;43.608;1.458;2024-01-16T14:59:19;32.15;;;4.00;;
49722;SDS011;43484;43.608;1.458;2024-01-16T15:01:45;14.15;;;1.67;;
49722;SDS011;43484;43.608;1.458;2024-01-16T15:04:12;4.88;;;1.20;;
49722;SDS011;43484;43.608;1.458;2024-01-16T15:06:39;5.32;;;0.98;;
49722;SDS011;43484;43.608;1.458;2024-01-16T15:09:06;9.27;;;1.60;;